createdAt,value
2024-03-10T00:00:11.339Z,37.1
2024-03-10T00:01:18.762Z,35.2
2024-03-10T00:02:26.663Z,35
2024-03-10T00:03:31.437Z,36.7
2024-03-10T00:04:36.429Z,36.2
2024-03-10T00:05:41.397Z,34.3
2024-03-10T00:06:46.262Z,34.1
2024-03-10T00:07:51.332Z,33.7
2024-03-10T00:08:58.884Z,35.6
2024-03-10T00:10:03.931Z,36.5
2024-03-10T00:11:08.942Z,35.3
2024-03-10T00:12:16.571Z,34
2024-03-10T00:13:21.389Z,34.5
2024-03-10T00:14:26.211Z,34.9
2024-03-10T00:15:30.942Z,37.2
2024-03-10T00:16:35.686Z,34.2
2024-03-10T00:17:40.456Z,36.7
2024-03-10T00:18:45.179Z,33.9
2024-03-10T00:19:49.893Z,35.7
2024-03-10T00:20:54.749Z,33.7
2024-03-10T00:21:59.517Z,33.8
2024-03-10T00:23:04.266Z,36
2024-03-10T00:24:09.023Z,34.7
2024-03-10T00:25:13.738Z,32.5
2024-03-10T00:26:18.485Z,36.4
2024-03-10T00:27:23.216Z,33.3
2024-03-10T00:28:28.091Z,34.9
2024-03-10T00:29:32.830Z,34.5
2024-03-10T00:30:37.516Z,36.3
2024-03-10T00:31:42.251Z,33.4
2024-03-10T00:32:47.008Z,33.8
2024-03-10T00:33:51.710Z,33.9
2024-03-10T00:34:56.518Z,34.3
2024-03-10T00:36:01.374Z,31.3
2024-03-10T00:37:06.186Z,34.5
2024-03-10T00:38:11.035Z,34.3
2024-03-10T00:39:15.720Z,36.4
2024-03-10T00:40:20.432Z,35.3
2024-03-10T00:41:25.251Z,35.1
2024-03-10T00:42:29.961Z,34.7
2024-03-10T00:43:34.841Z,35.8
2024-03-10T00:44:39.548Z,35.5
2024-03-10T00:45:44.280Z,35
2024-03-10T00:46:49.087Z,33.5
2024-03-10T00:47:53.978Z,34.4
2024-03-10T00:48:58.673Z,33.3
2024-03-10T00:50:03.427Z,30.6
2024-03-10T00:51:11.102Z,32.4
2024-03-10T00:52:15.815Z,30.9
2024-03-10T00:53:20.672Z,32.8
2024-03-10T00:54:25.498Z,31.7
2024-03-10T00:55:30.224Z,32.9
2024-03-10T00:56:34.933Z,30.9
2024-03-10T00:57:39.730Z,33.1
2024-03-10T00:58:44.627Z,35.4
2024-03-10T00:59:49.179Z,32.7
2024-03-10T01:00:53.925Z,32.7
2024-03-10T01:01:58.697Z,34.8
2024-03-10T01:03:03.421Z,33.3
2024-03-10T01:04:08.243Z,35.4
2024-03-10T01:05:13.113Z,35.8
2024-03-10T01:06:17.870Z,37.3
2024-03-10T01:07:22.630Z,38.2
2024-03-10T01:08:27.401Z,38.6
2024-03-10T01:09:32.047Z,36.1
2024-03-10T01:10:39.334Z,38.5
2024-03-10T01:11:44.370Z,35.2
2024-03-10T01:12:52.066Z,37.7
2024-03-10T01:13:56.837Z,36
2024-03-10T01:15:01.576Z,37.6
2024-03-10T01:16:06.403Z,39.7
2024-03-10T01:17:11.227Z,38
2024-03-10T01:18:15.889Z,37
2024-03-10T01:19:20.608Z,39
2024-03-10T01:20:25.395Z,39
2024-03-10T01:21:30.072Z,38.8
2024-03-10T01:22:34.915Z,41
2024-03-10T01:23:39.628Z,39.9
2024-03-10T01:24:47.188Z,40
2024-03-10T01:25:51.923Z,41.2
2024-03-10T01:26:56.748Z,41.5
2024-03-10T01:28:01.485Z,40.5
2024-03-10T01:29:06.385Z,40
2024-03-10T01:30:11.046Z,39.3
2024-03-10T01:31:15.879Z,40.4
2024-03-10T01:32:20.724Z,42.1
2024-03-10T01:33:25.431Z,39.5
2024-03-10T01:34:30.153Z,39.5
2024-03-10T01:35:35.000Z,39.7
2024-03-10T01:36:39.745Z,39.2
2024-03-10T01:37:44.600Z,40.1
2024-03-10T01:38:49.301Z,40.6
2024-03-10T01:39:54.077Z,39.8
2024-03-10T01:40:58.913Z,39.3
2024-03-10T01:42:03.701Z,38.7
2024-03-10T01:43:08.396Z,39.2
2024-03-10T01:44:16.187Z,38.4
2024-03-10T01:45:20.869Z,38.8
2024-03-10T01:46:25.615Z,34.4
2024-03-10T01:47:30.453Z,37.3
2024-03-10T01:48:35.069Z,34
2024-03-10T01:49:39.779Z,35.6
2024-03-10T01:50:44.472Z,35.2
2024-03-10T01:51:49.330Z,34.6
2024-03-10T01:52:54.057Z,32.3
2024-03-10T01:53:58.801Z,32.2
2024-03-10T01:55:03.621Z,33
2024-03-10T01:56:08.700Z,32.4
2024-03-10T01:57:16.355Z,33.6
2024-03-10T01:58:21.241Z,31.2
2024-03-10T01:59:26.101Z,31.2
2024-03-10T02:00:33.582Z,34.9
2024-03-10T02:01:38.442Z,32.5
2024-03-10T02:02:43.272Z,32.2
2024-03-10T02:03:50.815Z,30.5
2024-03-10T02:04:55.636Z,32.4
2024-03-10T02:06:00.583Z,34
2024-03-10T02:07:05.414Z,31.1
2024-03-10T02:08:10.318Z,32.1
2024-03-10T02:09:15.033Z,33.6
2024-03-10T02:10:22.507Z,30.4
2024-03-10T02:11:27.261Z,31.8
2024-03-10T02:12:34.819Z,30.4
2024-03-10T02:13:39.545Z,33.2
2024-03-10T02:14:47.032Z,31.9
2024-03-10T02:15:59.530Z,32.6
2024-03-10T02:17:04.381Z,31.9
2024-03-10T02:18:11.821Z,32.4
2024-03-10T02:19:16.765Z,33.4
2024-03-10T02:20:21.830Z,32.7
2024-03-10T02:21:26.264Z,32.4
2024-03-10T02:22:31.130Z,31.3
2024-03-10T02:23:35.876Z,34.1
2024-03-10T02:24:48.769Z,31
2024-03-10T02:25:53.621Z,32.6
2024-03-10T02:26:58.328Z,31.5
2024-03-10T02:28:03.113Z,31.4
2024-03-10T02:29:10.482Z,30
2024-03-10T02:30:20.238Z,31.5
2024-03-10T02:31:32.446Z,30.6
2024-03-10T02:32:42.158Z,30.1
2024-03-10T02:33:51.790Z,28.4
2024-03-10T02:35:01.434Z,29.2
2024-03-10T02:36:11.456Z,28.4
2024-03-10T02:37:21.152Z,29
2024-03-10T02:38:30.811Z,26.4
2024-03-10T02:39:40.423Z,27.3
2024-03-10T02:40:50.087Z,27.6
2024-03-10T02:41:59.684Z,26.2
2024-03-10T02:43:12.260Z,27.8
2024-03-10T02:44:24.780Z,25.3
2024-03-10T02:45:34.491Z,26.3
2024-03-10T02:46:44.325Z,27.5
2024-03-10T02:47:54.065Z,26.5
2024-03-10T02:48:58.834Z,24.9
2024-03-10T02:50:03.659Z,27.1
2024-03-10T02:51:08.569Z,26.9
2024-03-10T02:52:13.323Z,27.2
2024-03-10T02:53:18.126Z,27.3
2024-03-10T02:54:23.004Z,27
2024-03-10T02:55:27.693Z,27
2024-03-10T02:56:32.538Z,26.3
2024-03-10T02:57:37.244Z,27.8
2024-03-10T02:58:42.098Z,25.1
2024-03-10T02:59:46.971Z,25.7
2024-03-10T03:00:51.748Z,25.8
2024-03-10T03:01:56.470Z,25.3
2024-03-10T03:03:01.419Z,27.3
2024-03-10T03:04:06.213Z,28
2024-03-10T03:05:11.138Z,25.5
2024-03-10T03:06:16.346Z,26.7
2024-03-10T03:07:21.202Z,27
2024-03-10T03:08:26.174Z,26.1
2024-03-10T03:09:30.890Z,24.6
2024-03-10T03:10:35.680Z,26.9
2024-03-10T03:11:40.394Z,25.3
2024-03-10T03:12:45.181Z,26.3
2024-03-10T03:13:49.981Z,24.7
2024-03-10T03:14:54.703Z,25.8
2024-03-10T03:16:02.545Z,26.7
2024-03-10T03:17:07.397Z,26.7
2024-03-10T03:18:12.282Z,26.1
2024-03-10T03:19:17.014Z,26.1
2024-03-10T03:20:21.836Z,23.2
2024-03-10T03:21:26.527Z,24.4
2024-03-10T03:22:31.280Z,22.7
2024-03-10T03:23:38.848Z,23.4
2024-03-10T03:24:46.465Z,24.2
2024-03-10T03:25:51.269Z,24.5
2024-03-10T03:26:55.996Z,24.5
2024-03-10T03:28:00.731Z,22.6
2024-03-10T03:29:05.570Z,22.5
2024-03-10T03:30:10.284Z,23.2
2024-03-10T03:31:15.081Z,23.6
2024-03-10T03:32:19.758Z,22
2024-03-10T03:33:24.670Z,23.5
2024-03-10T03:34:29.341Z,23.4
2024-03-10T03:35:34.185Z,23.3
2024-03-10T03:36:38.950Z,24.4
2024-03-10T03:37:43.739Z,25.3
2024-03-10T03:38:48.444Z,23.2
2024-03-10T03:39:53.176Z,23
2024-03-10T03:40:57.990Z,24.9
2024-03-10T03:42:02.854Z,25.3
2024-03-10T03:43:07.606Z,22.6
2024-03-10T03:44:12.345Z,25.3
2024-03-10T03:45:20.046Z,24.7
2024-03-10T03:46:24.845Z,26.7
2024-03-10T03:47:29.578Z,23.9
2024-03-10T03:48:34.264Z,24.4
2024-03-10T03:49:39.010Z,24.6
2024-03-10T03:50:43.771Z,24.1
2024-03-10T03:51:48.782Z,24.7
2024-03-10T03:52:53.628Z,23.5
2024-03-10T03:53:58.234Z,24.9
2024-03-10T03:55:03.101Z,25
2024-03-10T03:56:07.896Z,26.1
2024-03-10T03:57:15.250Z,24.5
2024-03-10T03:58:19.989Z,23.7
2024-03-10T03:59:24.814Z,25.8
2024-03-10T04:00:29.413Z,25.7
2024-03-10T04:01:34.447Z,24.7
2024-03-10T04:02:39.147Z,26
2024-03-10T04:03:43.867Z,26.2
2024-03-10T04:04:49.018Z,25.8
2024-03-10T04:05:53.920Z,23.9
2024-03-10T04:06:58.926Z,23.9
2024-03-10T04:08:04.108Z,27.8
2024-03-10T04:09:09.250Z,24.9
2024-03-10T04:10:15.122Z,24.9
2024-03-10T04:11:18.158Z,24.9
2024-03-10T04:12:21.256Z,24.9
2024-03-10T04:13:24.078Z,24.9
2024-03-10T04:14:27.040Z,24.9
2024-03-10T04:15:30.002Z,24.9
2024-03-10T04:17:01.988Z,24.9
2024-03-10T04:18:16.938Z,24.9
2024-03-10T04:19:22.259Z,24.9
2024-03-10T04:20:25.238Z,24.9
2024-03-10T04:21:28.150Z,24.9
2024-03-10T04:22:45.545Z,24.9
2024-03-10T04:23:50.615Z,24.9
2024-03-10T04:24:53.591Z,24.9
2024-03-10T04:25:58.335Z,24.9
2024-03-10T04:27:03.125Z,23.7
2024-03-10T04:28:07.841Z,24.6
2024-03-10T04:29:12.640Z,26.2
2024-03-10T04:30:17.269Z,27.4
2024-03-10T04:31:22.171Z,27
2024-03-10T04:32:27.039Z,24.2
2024-03-10T04:33:31.603Z,25.1
2024-03-10T04:34:36.313Z,24.1
2024-03-10T04:35:41.122Z,25.3
2024-03-10T04:36:45.790Z,26.3
2024-03-10T04:37:50.579Z,26.2
2024-03-10T04:38:55.262Z,27.4
2024-03-10T04:40:00.049Z,28.4
2024-03-10T04:41:07.429Z,27.1
2024-03-10T04:42:12.135Z,26.3
2024-03-10T04:43:18.447Z,27.4
2024-03-10T04:44:21.638Z,24.2
2024-03-10T04:45:26.431Z,26.2
2024-03-10T04:46:31.240Z,27.3
2024-03-10T04:47:36.016Z,26.3
2024-03-10T04:48:40.584Z,25.5
2024-03-10T04:49:45.350Z,27.1
2024-03-10T04:50:50.080Z,26.3
2024-03-10T04:51:54.830Z,25.4
2024-03-10T04:52:59.673Z,26.1
2024-03-10T04:54:04.403Z,26.5
2024-03-10T04:55:09.083Z,28.5
2024-03-10T04:56:14.216Z,25.8
2024-03-10T04:57:18.779Z,26.8
2024-03-10T04:58:23.525Z,26.9
2024-03-10T04:59:30.976Z,26.2
2024-03-10T05:00:37.041Z,25.2
2024-03-10T05:01:40.417Z,26.7
2024-03-10T05:02:45.160Z,26.1
2024-03-10T05:03:49.846Z,24.8
2024-03-10T05:04:54.601Z,25.3
2024-03-10T05:05:59.416Z,26
2024-03-10T05:07:04.235Z,26
2024-03-10T05:08:08.957Z,24.8
2024-03-10T05:09:13.630Z,24.7
2024-03-10T05:10:18.414Z,25.7
2024-03-10T05:11:26.228Z,26.7
2024-03-10T05:12:30.862Z,24.9
2024-03-10T05:13:35.581Z,25
2024-03-10T05:14:40.325Z,27.7
2024-03-10T05:15:45.172Z,25.1
2024-03-10T05:16:49.958Z,24.6
2024-03-10T05:17:54.717Z,25
2024-03-10T05:19:02.146Z,25
2024-03-10T05:20:06.883Z,22.6
2024-03-10T05:21:11.730Z,23.9
2024-03-10T05:22:16.630Z,24.5
2024-03-10T05:23:21.429Z,24.3
2024-03-10T05:24:26.190Z,23.5
2024-03-10T05:25:33.817Z,26.3
2024-03-10T05:26:38.687Z,24.6
2024-03-10T05:27:43.381Z,23.3
2024-03-10T05:28:48.254Z,23.3
2024-03-10T05:29:53.017Z,23.4
2024-03-10T05:30:57.777Z,24.4
2024-03-10T05:32:02.582Z,22.6
2024-03-10T05:33:07.556Z,26.5
2024-03-10T05:34:12.226Z,22.3
2024-03-10T05:35:20.239Z,24
2024-03-10T05:36:25.077Z,23.7
2024-03-10T05:37:29.975Z,23.6
2024-03-10T05:38:37.653Z,22.7
2024-03-10T05:39:42.606Z,23.4
2024-03-10T05:40:47.480Z,22.8
2024-03-10T05:41:52.345Z,23.5
2024-03-10T05:42:57.391Z,23.9
2024-03-10T05:44:02.266Z,23.7
2024-03-10T05:45:07.285Z,22.3
2024-03-10T05:46:12.449Z,24.2
2024-03-10T05:47:17.325Z,24.5
2024-03-10T05:48:22.289Z,23.9
2024-03-10T05:49:27.084Z,24.4
2024-03-10T05:50:31.991Z,24.4
2024-03-10T05:51:36.884Z,23.8
2024-03-10T05:52:41.812Z,23.2
2024-03-10T05:53:46.743Z,22.9
2024-03-10T05:54:51.634Z,23.7
2024-03-10T05:55:56.539Z,22.9
2024-03-10T05:57:01.447Z,24.2
2024-03-10T05:58:06.467Z,22.9
2024-03-10T05:59:11.416Z,23
2024-03-10T06:00:16.529Z,23.7
2024-03-10T06:01:21.434Z,23.2
2024-03-10T06:02:26.366Z,22.5
2024-03-10T06:03:31.228Z,24.6
2024-03-10T06:04:36.159Z,23.4
2024-03-10T06:05:44.088Z,22.9
2024-03-10T06:06:48.975Z,23.2
2024-03-10T06:07:53.999Z,21.7
2024-03-10T06:08:58.820Z,23.6
2024-03-10T06:10:03.713Z,22.4
2024-03-10T06:11:08.732Z,23.9
2024-03-10T06:12:13.491Z,22.9
2024-03-10T06:13:18.213Z,22.9
2024-03-10T06:14:23.051Z,20
2024-03-10T06:15:27.813Z,22.2
2024-03-10T06:16:32.572Z,21
2024-03-10T06:17:37.518Z,22
2024-03-10T06:18:42.273Z,22.2
2024-03-10T06:19:51.901Z,22.9
2024-03-10T06:21:01.546Z,22.5
2024-03-10T06:22:11.138Z,21.4
2024-03-10T06:23:20.918Z,21.3
2024-03-10T06:24:30.622Z,20.1
2024-03-10T06:25:40.353Z,21
2024-03-10T06:26:45.923Z,21.2
2024-03-10T06:27:49.865Z,20.9
2024-03-10T06:28:54.863Z,23.1
2024-03-10T06:29:59.625Z,20.2
2024-03-10T06:31:04.374Z,21.2
2024-03-10T06:32:09.150Z,23.1
2024-03-10T06:33:13.972Z,20.4
2024-03-10T06:34:21.927Z,21.4
2024-03-10T06:35:23.490Z,21.1
2024-03-10T06:36:28.340Z,19.9
2024-03-10T06:37:33.169Z,20.4
2024-03-10T06:38:38.001Z,22.9
2024-03-10T06:39:45.651Z,20.6
2024-03-10T06:40:50.376Z,19.9
2024-03-10T06:41:55.060Z,19.9
2024-03-10T06:43:00.008Z,20
2024-03-10T06:44:04.735Z,21.3
2024-03-10T06:45:09.474Z,20.2
2024-03-10T06:46:14.461Z,19.4
2024-03-10T06:47:19.243Z,18.2
2024-03-10T06:48:24.053Z,19.3
2024-03-10T06:49:28.841Z,17.8
2024-03-10T06:50:33.771Z,20.2
2024-03-10T06:51:38.366Z,19.4
2024-03-10T06:52:43.098Z,18.8
2024-03-10T06:53:47.970Z,18.8
2024-03-10T06:54:52.977Z,18.8
2024-03-10T06:55:58.018Z,18.3
2024-03-10T06:57:02.926Z,19.2
2024-03-10T06:58:08.183Z,19.4
2024-03-10T06:59:13.046Z,20.5
2024-03-10T07:00:17.940Z,19.5
2024-03-10T07:01:23.021Z,20.5
2024-03-10T07:02:28.003Z,21.4
2024-03-10T07:03:32.809Z,20.1
2024-03-10T07:04:37.724Z,19.1
2024-03-10T07:05:42.608Z,21.2
2024-03-10T07:06:47.529Z,20.8
2024-03-10T07:07:52.508Z,20.5
2024-03-10T07:08:57.418Z,20.4
2024-03-10T07:10:02.253Z,20.5
2024-03-10T07:11:07.491Z,22.1
2024-03-10T07:12:12.277Z,21.9
2024-03-10T07:13:17.044Z,22.1
2024-03-10T07:14:21.988Z,21.2
2024-03-10T07:15:26.920Z,21.2
2024-03-10T07:16:31.838Z,20.7
2024-03-10T07:17:36.937Z,21.1
2024-03-10T07:18:44.385Z,21
2024-03-10T07:19:49.318Z,20.6
2024-03-10T07:20:54.188Z,21.4
2024-03-10T07:21:59.045Z,20.3
2024-03-10T07:23:04.017Z,21.7
2024-03-10T07:24:09.036Z,21.2
2024-03-10T07:25:13.925Z,20.1
2024-03-10T07:26:19.004Z,20.5
2024-03-10T07:27:24.070Z,20.3
2024-03-10T07:28:31.730Z,18.6
2024-03-10T07:29:36.698Z,19
2024-03-10T07:30:44.776Z,19.9
2024-03-10T07:31:49.810Z,17.7
2024-03-10T07:32:54.748Z,17.8
2024-03-10T07:33:59.705Z,17.9
2024-03-10T07:35:04.769Z,17.9
2024-03-10T07:36:09.752Z,18.7
2024-03-10T07:37:14.616Z,16.9
2024-03-10T07:38:19.519Z,15.3
2024-03-10T07:39:24.607Z,15.5
2024-03-10T07:40:29.353Z,16
2024-03-10T07:41:34.341Z,15.2
2024-03-10T07:42:42.036Z,15.1
2024-03-10T07:43:47.005Z,15
2024-03-10T07:44:51.983Z,14.5
2024-03-10T07:45:56.915Z,16.4
2024-03-10T07:47:01.966Z,14.2
2024-03-10T07:48:07.381Z,15.1
2024-03-10T07:49:11.806Z,17
2024-03-10T07:50:16.772Z,16.1
2024-03-10T07:51:21.805Z,15.8
2024-03-10T07:52:26.776Z,15.4
2024-03-10T07:53:31.854Z,15.2
2024-03-10T07:54:36.648Z,13.5
2024-03-10T07:55:41.563Z,15.2
2024-03-10T07:56:46.548Z,14.2
2024-03-10T07:57:51.461Z,15
2024-03-10T07:58:56.536Z,16
2024-03-10T08:00:01.494Z,14.8
2024-03-10T08:01:06.536Z,14.1
2024-03-10T08:02:11.583Z,14.3
2024-03-10T08:03:16.495Z,15
2024-03-10T08:04:21.490Z,13.5
2024-03-10T08:05:26.513Z,14
2024-03-10T08:06:31.415Z,14.9
2024-03-10T08:07:36.335Z,13.5
2024-03-10T08:08:44.533Z,13.1
2024-03-10T08:09:52.477Z,13.9
2024-03-10T08:10:57.408Z,15.5
2024-03-10T08:12:02.307Z,14.1
2024-03-10T08:13:07.451Z,14.4
2024-03-10T08:14:12.421Z,14.3
2024-03-10T08:15:20.118Z,15.4
2024-03-10T08:16:24.980Z,14.3
2024-03-10T08:17:29.970Z,14.1
2024-03-10T08:18:34.906Z,14.4
2024-03-10T08:19:39.806Z,13.9
2024-03-10T08:20:44.802Z,14.1
2024-03-10T08:21:49.691Z,13.4
2024-03-10T08:22:54.656Z,15
2024-03-10T08:23:59.563Z,14.1
2024-03-10T08:25:04.482Z,13.8
2024-03-10T08:26:09.537Z,14.7
2024-03-10T08:27:14.425Z,12.8
2024-03-10T08:28:19.388Z,12.9
2024-03-10T08:29:24.370Z,11.9
2024-03-10T08:30:29.228Z,11.7
2024-03-10T08:31:34.259Z,12.8
2024-03-10T08:32:39.363Z,12.9
2024-03-10T08:33:46.784Z,12.1
2024-03-10T08:34:52.039Z,11.8
2024-03-10T08:35:57.181Z,11.8
2024-03-10T08:37:02.127Z,11.6
2024-03-10T08:38:07.043Z,11.9
2024-03-10T08:39:11.888Z,14
2024-03-10T08:40:16.838Z,11.7
2024-03-10T08:41:21.845Z,11.7
2024-03-10T08:42:26.748Z,11.7
2024-03-10T08:43:31.686Z,12.5
2024-03-10T08:44:36.642Z,12.1
2024-03-10T08:45:41.580Z,10.9
2024-03-10T08:46:46.481Z,11.7
2024-03-10T08:47:51.418Z,12.3
2024-03-10T08:48:56.328Z,10.1
2024-03-10T08:50:01.292Z,10.1
2024-03-10T08:51:06.352Z,12.3
2024-03-10T08:52:11.169Z,12.3
2024-03-10T08:53:16.054Z,11.8
2024-03-10T08:54:20.959Z,10.1
2024-03-10T08:55:25.843Z,10.1
2024-03-10T08:56:30.808Z,11.3
2024-03-10T08:57:35.920Z,10.8
2024-03-10T08:58:40.857Z,12.6
2024-03-10T08:59:48.668Z,9.6
2024-03-10T09:00:53.595Z,9.7
2024-03-10T09:01:58.498Z,10.4
2024-03-10T09:03:06.422Z,9.5
2024-03-10T09:04:11.313Z,10.8
2024-03-10T09:05:16.289Z,11.5
2024-03-10T09:06:21.199Z,12.7
2024-03-10T09:07:26.084Z,11.1
2024-03-10T09:08:31.944Z,10.5
2024-03-10T09:09:36.840Z,11.2
2024-03-10T09:10:48.825Z,12
2024-03-10T09:11:46.963Z,10.4
2024-03-10T09:12:54.349Z,11.2
2024-03-10T09:13:59.374Z,12.9
2024-03-10T09:15:05.696Z,11.9
2024-03-10T09:16:11.002Z,12.3
2024-03-10T09:17:17.932Z,11.8
2024-03-10T09:18:21.028Z,12.2
2024-03-10T09:19:25.941Z,10.9
2024-03-10T09:20:30.990Z,10.7
2024-03-10T09:21:35.984Z,10.4
2024-03-10T09:22:41.089Z,10.5
2024-03-10T09:23:46.058Z,11.9
2024-03-10T09:24:51.011Z,13.1
2024-03-10T09:25:56.185Z,11.8
2024-03-10T09:27:01.050Z,12.3
2024-03-10T09:28:05.954Z,12.4
2024-03-10T09:29:11.003Z,11.8
2024-03-10T09:30:15.764Z,13.1
2024-03-10T09:31:20.693Z,13.4
2024-03-10T09:32:25.672Z,11.3
2024-03-10T09:33:30.605Z,11
2024-03-10T09:34:35.542Z,12.2
2024-03-10T09:35:40.720Z,11.4
2024-03-10T09:36:45.791Z,11.5
2024-03-10T09:37:50.659Z,11.6
2024-03-10T09:38:55.588Z,11.8
2024-03-10T09:40:00.639Z,12.6
2024-03-10T09:41:05.645Z,12.1
2024-03-10T09:42:10.821Z,10.9
2024-03-10T09:43:15.706Z,11.4
2024-03-10T09:44:20.664Z,11.5
2024-03-10T09:45:25.802Z,11.3
2024-03-10T09:46:30.694Z,10.9
2024-03-10T09:47:35.651Z,11.4
2024-03-10T09:48:40.536Z,11.4
2024-03-10T09:49:48.384Z,12.7
2024-03-10T09:50:53.312Z,10
2024-03-10T09:51:58.680Z,11.9
2024-03-10T09:53:03.149Z,10.8
2024-03-10T09:54:08.014Z,11.5
2024-03-10T09:55:12.907Z,11.2
2024-03-10T09:56:17.871Z,10.7
2024-03-10T09:57:22.788Z,10.8
2024-03-10T09:58:30.230Z,12
2024-03-10T09:59:37.602Z,11
2024-03-10T10:00:45.365Z,11.7
2024-03-10T10:01:50.287Z,11.8
2024-03-10T10:02:55.124Z,12.1
2024-03-10T10:04:03.120Z,11
2024-03-10T10:05:08.123Z,11.3
2024-03-10T10:06:12.889Z,13.5
2024-03-10T10:07:17.909Z,10.6
2024-03-10T10:08:22.760Z,11.8
2024-03-10T10:09:27.729Z,11.3
2024-03-10T10:10:32.545Z,11.7
2024-03-10T10:11:37.443Z,11.4
2024-03-10T10:12:42.241Z,11.5
2024-03-10T10:13:47.156Z,12.3
2024-03-10T10:14:52.382Z,13.5
2024-03-10T10:15:57.347Z,13.2
2024-03-10T10:17:02.366Z,11.6
2024-03-10T10:18:07.333Z,13
2024-03-10T10:19:12.288Z,13.5
2024-03-10T10:20:17.236Z,12.6
2024-03-10T10:21:22.116Z,12.5
2024-03-10T10:22:27.068Z,12.6
2024-03-10T10:23:31.996Z,13.5
2024-03-10T10:24:37.073Z,13.2
2024-03-10T10:25:41.976Z,12.2
2024-03-10T10:26:46.856Z,15.2
2024-03-10T10:27:59.534Z,13.4
2024-03-10T10:29:04.557Z,12.8
2024-03-10T10:30:09.418Z,12
2024-03-10T10:31:14.339Z,12.2
2024-03-10T10:32:19.288Z,13.8
2024-03-10T10:33:25.974Z,13.2
2024-03-10T10:34:31.005Z,12.8
2024-03-10T10:35:36.257Z,13.6
2024-03-10T10:36:43.981Z,12.3
2024-03-10T10:37:49.110Z,14.1
2024-03-10T10:38:56.741Z,13.5
2024-03-10T10:40:01.769Z,13.8
2024-03-10T10:41:07.088Z,14.4
2024-03-10T10:42:12.831Z,13.9
2024-03-10T10:43:17.026Z,13.2
2024-03-10T10:44:22.060Z,13.4
2024-03-10T10:45:26.990Z,14.6
2024-03-10T10:46:34.875Z,13.5
2024-03-10T10:47:39.894Z,16.1
2024-03-10T10:48:44.747Z,13.9
2024-03-10T10:49:49.744Z,15.6
2024-03-10T10:50:54.689Z,14
2024-03-10T10:51:59.632Z,13.3
2024-03-10T10:53:04.855Z,13.6
2024-03-10T10:54:09.674Z,14.2
2024-03-10T10:55:14.557Z,15.1
2024-03-10T10:56:19.595Z,13.2
2024-03-10T10:57:24.754Z,12.9
2024-03-10T10:58:29.627Z,12.3
2024-03-10T10:59:34.620Z,12.8
2024-03-10T11:00:39.605Z,13
2024-03-10T11:01:46.609Z,12.8
2024-03-10T11:02:49.372Z,13.6
2024-03-10T11:03:54.306Z,11.7
2024-03-10T11:05:02.142Z,11.7
2024-03-10T11:06:07.113Z,10.7
2024-03-10T11:07:11.983Z,10.5
2024-03-10T11:08:17.204Z,11
2024-03-10T11:09:21.963Z,11.6
2024-03-10T11:10:29.984Z,11.8
2024-03-10T11:11:42.672Z,10.1
2024-03-10T11:12:47.508Z,10.1
2024-03-10T11:13:54.725Z,10.1
2024-03-10T11:14:57.533Z,9.1
2024-03-10T11:16:02.459Z,10.1
2024-03-10T11:17:15.163Z,10.2
2024-03-10T11:18:22.989Z,10.6
2024-03-10T11:19:30.654Z,6.9
2024-03-10T11:20:35.665Z,9.3
2024-03-10T11:21:40.537Z,8.6
2024-03-10T11:22:45.467Z,10.5
2024-03-10T11:23:55.325Z,11.7
2024-03-10T11:25:00.180Z,10.3
2024-03-10T11:26:08.614Z,10.8
2024-03-10T11:27:13.492Z,10.2
2024-03-10T11:28:21.247Z,11.7
2024-03-10T11:29:31.190Z,10.2
2024-03-10T11:30:36.028Z,11.4
2024-03-10T11:31:40.915Z,9.9
2024-03-10T11:32:45.967Z,10.4
2024-03-10T11:33:50.792Z,10.7
2024-03-10T11:34:55.863Z,11.3
2024-03-10T11:36:00.904Z,9.6
2024-03-10T11:37:06.031Z,9.9
2024-03-10T11:38:11.119Z,8.9
2024-03-10T11:39:15.758Z,10.8
2024-03-10T11:40:25.484Z,13.4
2024-03-10T11:41:30.334Z,14.3
2024-03-10T11:42:35.296Z,16.2
2024-03-10T11:43:40.285Z,14.6
2024-03-10T11:44:47.922Z,14.4
2024-03-10T11:45:52.965Z,15.6
2024-03-10T11:46:58.038Z,15.3
2024-03-10T11:48:03.159Z,16
2024-03-10T11:49:08.256Z,15
2024-03-10T11:50:13.206Z,15.1
2024-03-10T11:51:18.140Z,15.5
2024-03-10T11:52:22.981Z,15.8
2024-03-10T11:53:28.026Z,17
2024-03-10T11:54:32.868Z,12.8
2024-03-10T11:55:37.721Z,10.3
2024-03-10T11:56:42.632Z,11.5
2024-03-10T11:57:47.588Z,14.7
2024-03-10T11:58:58.797Z,15.2
2024-03-10T12:00:03.617Z,9.9
2024-03-10T12:01:08.806Z,7.2
2024-03-10T12:02:14.005Z,6.5
2024-03-10T12:03:18.885Z,7.1
2024-03-10T12:04:23.806Z,5.9
2024-03-10T12:05:28.722Z,7.2
2024-03-10T12:06:33.575Z,6.6
2024-03-10T12:07:38.489Z,7
2024-03-10T12:08:43.621Z,14.1
2024-03-10T12:09:51.654Z,13.4
2024-03-10T12:10:59.436Z,13
2024-03-10T12:12:04.212Z,13.3
2024-03-10T12:13:14.105Z,14.6
2024-03-10T12:14:21.881Z,13
2024-03-10T12:15:26.786Z,12.9
2024-03-10T12:16:31.713Z,13.9
2024-03-10T12:17:36.676Z,12.9
2024-03-10T12:18:41.553Z,12.5
2024-03-10T12:19:49.205Z,12.2
2024-03-10T12:20:54.122Z,15.2
2024-03-10T12:21:59.067Z,12.2
2024-03-10T12:23:04.067Z,11.7
2024-03-10T12:24:12.164Z,11.6
2024-03-10T12:25:17.287Z,10.9
2024-03-10T12:26:25.069Z,11.1
2024-03-10T12:27:29.934Z,10.1
2024-03-10T12:28:34.848Z,11
2024-03-10T12:29:39.911Z,10.9
2024-03-10T12:30:49.949Z,12.7
2024-03-10T12:31:55.992Z,15.3
2024-03-10T12:32:59.757Z,11.5
2024-03-10T12:34:04.762Z,9.9
2024-03-10T12:35:09.790Z,8.9
2024-03-10T12:36:14.621Z,8.5
2024-03-10T12:37:21.188Z,9.4
2024-03-10T12:38:27.410Z,6.8
2024-03-10T12:39:32.334Z,9.3
2024-03-10T12:40:37.481Z,7.9
2024-03-10T12:41:42.462Z,9.2
2024-03-10T12:42:47.374Z,6.8
2024-03-10T12:43:52.353Z,5.8
2024-03-10T12:44:57.384Z,5.5
2024-03-10T12:46:02.377Z,6.1
2024-03-10T12:47:07.631Z,5.4
2024-03-10T12:48:12.609Z,5.4
2024-03-10T12:49:17.522Z,5.2
2024-03-10T12:50:22.590Z,5.1
2024-03-10T12:51:27.493Z,4.5
2024-03-10T12:52:32.453Z,3.8
2024-03-10T12:53:37.313Z,4.9
2024-03-10T12:54:42.165Z,6.2
2024-03-10T12:55:47.221Z,7
2024-03-10T12:56:52.125Z,6.1
2024-03-10T12:57:57.074Z,6.2
2024-03-10T12:59:02.081Z,5.9
2024-03-10T13:00:07.042Z,4.6
2024-03-10T13:01:17.094Z,5
2024-03-10T13:02:22.009Z,5.7
2024-03-10T13:03:26.974Z,4.6
2024-03-10T13:04:32.081Z,5.3
2024-03-10T13:05:36.994Z,4
2024-03-10T13:06:41.871Z,6.8
2024-03-10T13:07:46.756Z,3.8
2024-03-10T13:08:51.761Z,5.2
2024-03-10T13:09:56.837Z,5
2024-03-10T13:11:01.941Z,5.6
2024-03-10T13:12:06.973Z,5.5
2024-03-10T13:13:11.941Z,6.7
2024-03-10T13:14:16.816Z,6.9
2024-03-10T13:15:21.927Z,5.2
2024-03-10T13:16:32.182Z,6.2
2024-03-10T13:17:37.410Z,5.6
2024-03-10T13:18:45.125Z,5.4
2024-03-10T13:19:49.974Z,5.3
2024-03-10T13:20:54.913Z,5.6
2024-03-10T13:21:59.892Z,5.4
2024-03-10T13:23:04.826Z,8.9
2024-03-10T13:24:09.728Z,5.4
2024-03-10T13:25:14.656Z,5.4
2024-03-10T13:26:19.548Z,6.2
2024-03-10T13:27:24.472Z,5.2
2024-03-10T13:28:29.356Z,6.3
2024-03-10T13:29:34.386Z,6
2024-03-10T13:30:39.318Z,6.2
2024-03-10T13:31:44.299Z,5.2
2024-03-10T13:32:49.515Z,5.9
2024-03-10T13:33:54.515Z,7.1
2024-03-10T13:34:59.477Z,5
2024-03-10T13:36:10.255Z,5.9
2024-03-10T13:37:14.941Z,5.7
2024-03-10T13:38:19.979Z,5.7
2024-03-10T13:39:24.888Z,5.7
2024-03-10T13:40:29.746Z,6.3
2024-03-10T13:41:35.132Z,5
2024-03-10T13:42:40.036Z,5.9
2024-03-10T13:43:48.131Z,6.3
2024-03-10T13:44:52.814Z,6.3
2024-03-10T13:45:57.929Z,5.3
2024-03-10T13:47:02.982Z,5.5
2024-03-10T13:48:07.947Z,5.4
2024-03-10T13:49:12.841Z,7.1
2024-03-10T13:50:17.752Z,6
2024-03-10T13:51:22.704Z,6.7
2024-03-10T13:52:30.194Z,7.6
2024-03-10T13:53:35.013Z,5.2
2024-03-10T13:54:39.859Z,7.1
2024-03-10T13:55:47.782Z,6.7
2024-03-10T13:56:52.744Z,6.4
2024-03-10T13:57:57.652Z,7.1
2024-03-10T13:59:02.455Z,6.9
2024-03-10T14:00:07.182Z,5.9
2024-03-10T14:01:16.992Z,6.4
2024-03-10T14:02:21.796Z,6.5
2024-03-10T14:03:29.319Z,6.1
2024-03-10T14:04:34.180Z,6.4
2024-03-10T14:05:38.951Z,7.4
2024-03-10T14:06:43.685Z,7.5
2024-03-10T14:07:48.438Z,7.5
2024-03-10T14:08:53.254Z,7.2
2024-03-10T14:09:58.143Z,7.6
2024-03-10T14:11:02.962Z,7.6
2024-03-10T14:12:07.756Z,8.1
2024-03-10T14:13:12.529Z,8.2
2024-03-10T14:14:17.344Z,9.7
2024-03-10T14:15:22.192Z,6.9
2024-03-10T14:16:29.588Z,8
2024-03-10T14:17:34.441Z,6.9
2024-03-10T14:18:42.094Z,7.2
2024-03-10T14:19:46.829Z,7.1
2024-03-10T14:20:51.641Z,6.7
2024-03-10T14:21:59.308Z,8.4
2024-03-10T14:23:04.054Z,8.3
2024-03-10T14:24:08.900Z,8.1
2024-03-10T14:25:13.887Z,7.8
2024-03-10T14:26:18.427Z,10
2024-03-10T14:27:23.286Z,11.1
2024-03-10T14:28:27.982Z,8.5
2024-03-10T14:29:32.837Z,10.8
2024-03-10T14:30:37.522Z,11.6
2024-03-10T14:31:42.242Z,12.4
2024-03-10T14:32:47.917Z,11
2024-03-10T14:33:51.786Z,12.3
2024-03-10T14:34:56.547Z,8.2
2024-03-10T14:36:01.359Z,7.3
2024-03-10T14:37:06.157Z,7.3
2024-03-10T14:38:10.981Z,8
2024-03-10T14:39:15.678Z,6.1
2024-03-10T14:40:20.430Z,6.7
2024-03-10T14:41:25.230Z,6.4